Terminal Aerodrome Forecast
Issued by NWS

Home | Current Version | Previous Version | Text Only | Print | Product List | Glossary On
Versions: 1 2 3 4 5 6 7 8 9 10 11 12 13 14 15 16 17 18 19 20 21
000
FTUS43 KJKL 281700 CCA
TAFSME
TAF COR
KSME 281743Z 2818/2918 VRB05KT P6SM SCT250
     FM291300 20010KT P6SM VCSH BKN050
     FM291500 20010G20KT 5SM -SHRA BKN030 BKN050=

USA.gov is the U.S. government's official web portal to all federal, state and local government web resources and services.